Time;durP1;ratioP1;P1;durP2;ratioP2;P2;SDS_P1;SDS_P2;PMS_P1;PMS_P2;Temp;Humidity;BMP_temperature;BMP_pressure;BME280_temperature;BME280_humidity;BME280_pressure;Samples;Min_cycle;Max_cycle;Signal;HPM_P1;HPM_P2
2022/02/13 00:00:45;;;;;;;15.43;7.50;;;;;;;-1.31;62.48;93552.00;4952012;28;20035;-90
2022/02/13 00:07:21;;;;;;;12.50;6.75;;;;;;;-1.35;62.79;93543.88;4936831;29;20107;-90
2022/02/13 00:13:35;;;;;;;16.98;7.85;;;;;;;-1.43;62.66;93541.44;4930776;29;20047;-91
2022/02/13 00:16:51;;;;;;;;;;;;;;;;;;;;;
2022/02/13 00:20:06;;;;;;;;;;;;;;;;;;;;;
2022/02/13 00:23:03;;;;;;;11.13;5.78;;;;;;;-1.10;62.19;93590.50;4941416;29;20047;-90
2022/02/13 00:26:28;;;;;;;;;;;;;;;;;;;;;
2022/02/13 00:36:14;;;;;;;;;;;;;;;;;;;;;
2022/02/13 00:39:30;;;;;;;;;;;;;;;;;;;;;
2022/02/13 00:45:30;;;;;;;12.60;6.68;;;;;;;-1.64;63.45;93519.19;4930802;29;20512;-90
2022/02/13 00:48:59;;;;;;;;;;;;;;;;;;;;;
2022/02/13 00:51:53;;;;;;;20.48;8.82;;;;;;;-1.66;64.29;93503.16;4951962;29;20035;-91
2022/02/13 00:55:28;;;;;;;;;;;;;;;;;;;;;
2022/02/13 00:58:52;;;;;;;17.38;7.68;;;;;;;-1.33;63.52;93561.66;4950652;29;20036;-91
2022/02/13 01:02:10;;;;;;;;;;;;;;;;;;;;;
2022/02/13 01:11:53;;;;;;;12.70;5.97;;;;;;;-1.40;65.57;93545.41;4939629;28;20047;-89
2022/02/13 01:14:44;;;;;;;14.23;7.10;;;;;;;-1.83;65.29;93489.00;4942413;29;20050;-90
2022/02/13 01:21:23;;;;;;;18.92;7.90;;;;;;;-1.88;65.20;93490.34;4930031;29;20046;-92
2022/02/13 01:31:20;;;;;;;13.50;6.40;;;;;;;-1.72;65.87;93501.34;4928439;29;20196;-90
2022/02/13 01:34:22;;;;;;;;;;;;;;;;;;;;;
2022/02/13 01:37:43;;;;;;;14.77;6.25;;;;;;;-1.69;66.07;93500.94;4944959;29;20404;-91
2022/02/13 01:44:03;;;;;;;;;;;;;;;;;;;;;
2022/02/13 01:47:28;;;;;;;;;;;;;;;;;;;;;
2022/02/13 01:50:37;;;;;;;;;;;;;;;;;;;;;
2022/02/13 01:53:28;;;;;;;16.25;6.25;;;;;;;-1.88;66.24;93463.88;4926909;29;20494;-92
2022/02/13 01:56:42;;;;;;;;;;;;;;;;;;;;;
2022/02/13 02:03:41;;;;;;;10.98;5.15;;;;;;;-1.92;65.87;93450.63;4931888;29;20058;-90
2022/02/13 02:07:23;;;;;;;;;;;;;;;;;;;;;
2022/02/13 02:10:31;;;;;;;;;;;;;;;;;;;;;
2022/02/13 02:20:43;;;;;;;;;;;;;;;;;;;;;
2022/02/13 02:27:30;;;;;;;;;;;;;;;;;;;;;
2022/02/13 02:33:58;;;;;;;;;;;;;;;;;;;;;
2022/02/13 02:37:03;;;;;;;12.05;5.53;;;;;;;-1.80;66.00;93439.84;4938830;29;20081;-90
2022/02/13 02:43:14;;;;;;;11.48;5.20;;;;;;;-1.83;65.54;93440.22;4946655;29;20578;-90
2022/02/13 02:46:09;;;;;;;10.63;5.15;;;;;;;-1.82;65.34;93444.38;4925136;29;20146;-90
2022/02/13 02:49:05;;;;;;;14.02;5.32;;;;;;;-2.08;65.40;93399.59;4941247;29;20052;-90
2022/02/13 02:52:18;;;;;;;13.10;5.95;;;;;;;-1.66;65.66;93469.00;4956689;28;20130;-91
2022/02/13 02:55:44;;;;;;;11.52;5.78;;;;;;;-1.78;66.05;93455.84;4942503;29;20396;-91
2022/02/13 02:58:39;;;;;;;;;;;;;;;;;;;;;
2022/02/13 03:04:53;;;;;;;;;;;;;;;;;;;;;
2022/02/13 03:08:11;;;;;;;;;;;;;;;;;;;;;
2022/02/13 03:11:35;;;;;;;;;;;;;;;;;;;;;
2022/02/13 03:18:22;;;;;;;;;;;;;;;;;;;;;
2022/02/13 03:21:34;;;;;;;11.48;5.68;;;;;;;-2.19;66.10;93407.78;4958869;28;20117;-90
2022/02/13 03:24:41;;;;;;;;;;;;;;;;;;;;;
2022/02/13 03:27:45;;;;;;;12.00;5.28;;;;;;;-2.12;65.96;93414.56;4936863;28;20076;-89
2022/02/13 03:30:45;;;;;;;14.52;5.55;;;;;;;-2.27;65.92;93387.38;4957344;28;20050;-91
2022/02/13 03:33:57;;;;;;;12.25;5.47;;;;;;;-2.29;66.05;93390.16;4954211;28;20073;-90
2022/02/13 03:39:53;;;;;;;11.48;5.90;;;;;;;-1.81;66.46;93456.25;4964999;28;20060;-90
2022/02/13 03:43:18;;;;;;;;;;;;;;;;;;;;;
2022/02/13 03:46:41;;;;;;;10.95;5.43;;;;;;;-2.32;66.65;93393.06;4954715;29;20042;-89
2022/02/13 03:49:29;;;;;;;;;;;;;;;;;;;;;
2022/02/13 03:52:18;;;;;;;;;;;;;;;;;;;;;
2022/02/13 03:55:03;;;;;;;;;;;;;;;;;;;;;
2022/02/13 04:04:27;;;;;;;11.02;5.65;;;;;;;-2.28;66.50;93429.41;4968977;28;20051;-90
2022/02/13 04:10:56;;;;;;;12.15;5.38;;;;;;;-2.22;66.54;93454.34;4937696;29;20055;-90
2022/02/13 04:13:52;;;;;;;;;;;;;;;;;;;;;
2022/02/13 04:20:20;;;;;;;11.85;5.55;;;;;;;-2.62;67.41;93388.09;4953427;28;20043;-90
2022/02/13 04:23:33;;;;;;;;;;;;;;;;;;;;;
2022/02/13 04:26:18;;;;;;;16.30;6.35;;;;;;;-2.74;67.54;93369.06;4939256;29;20090;-90
2022/02/13 04:29:23;;;;;;;;;;;;;;;;;;;;;
2022/02/13 04:32:10;;;;;;;11.60;5.97;;;;;;;-2.42;67.77;93424.16;4944308;28;20062;-90
2022/02/13 04:35:47;;;;;;;;;;;;;;;;;;;;;
2022/02/13 04:38:30;;;;;;;;;;;;;;;;;;;;;
2022/02/13 04:44:44;;;;;;;;;;;;;;;;;;;;;
2022/02/13 04:47:39;;;;;;;10.75;5.18;;;;;;;-2.85;68.36;93369.56;4946940;28;20043;-90
2022/02/13 04:50:30;;;;;;;12.60;5.63;;;;;;;-2.87;68.52;93367.16;4952538;28;20396;-90
2022/02/13 04:53:28;;;;;;;10.57;5.25;;;;;;;-2.78;68.36;93373.75;4962825;28;20391;-90
2022/02/13 04:56:37;;;;;;;;;;;;;;;;;;;;;
2022/02/13 04:59:28;;;;;;;;;;;;;;;;;;;;;
2022/02/13 05:02:40;;;;;;;12.57;6.13;;;;;;;-2.90;68.55;93357.28;4968283;28;20047;-89
2022/02/13 05:05:22;;;;;;;13.50;5.45;;;;;;;-2.64;67.96;93394.38;4950895;28;20064;-89
2022/02/13 05:08:44;;;;;;;13.50;5.60;;;;;;;-2.89;67.71;93350.38;4930833;28;20109;-90
2022/02/13 05:11:43;;;;;;;;;;;;;;;;;;;;;
2022/02/13 05:14:38;;;;;;;12.50;5.20;;;;;;;-2.55;67.18;93412.00;4936515;28;20101;-90
2022/02/13 05:17:46;;;;;;;11.87;5.70;;;;;;;-2.56;66.89;93407.09;4959405;28;20112;-90
2022/02/13 05:23:15;;;;;;;9.68;5.03;;;;;;;-3.11;65.98;93323.94;4950452;28;20046;-91
2022/02/13 05:26:04;;;;;;;9.73;4.88;;;;;;;-3.01;65.97;93342.41;4960994;28;20039;-89
2022/02/13 05:28:57;;;;;;;8.50;4.45;;;;;;;-2.88;65.08;93367.34;4949617;29;20039;-89
2022/02/13 05:35:28;;;;;;;;;;;;;;;;;;;;;
2022/02/13 05:38:38;;;;;;;19.15;4.28;;;;;;;-2.72;63.92;93393.53;4975186;28;20046;-90
2022/02/13 05:42:04;;;;;;;11.35;4.78;;;;;;;-3.19;63.98;93317.97;4947443;28;20682;-90
2022/02/13 05:44:58;;;;;;;9.88;4.97;;;;;;;-3.21;64.74;93325.03;4949879;28;20047;-90
2022/02/13 05:47:52;;;;;;;;;;;;;;;;;;;;;
2022/02/13 05:50:47;;;;;;;9.48;5.03;;;;;;;-3.00;65.36;93364.47;4955222;29;20055;-90
2022/02/13 05:53:39;;;;;;;11.45;4.97;;;;;;;-3.35;65.01;93313.09;4941199;28;20055;-90
2022/02/13 05:56:16;;;;;;;8.75;5.22;;;;;;;-3.37;64.87;93322.72;4938525;28;20047;-90
2022/02/13 05:59:05;;;;;;;9.93;5.53;;;;;;;-2.88;65.62;93392.97;4943030;28;20114;-89
2022/02/13 06:01:56;;;;;;;12.18;5.15;;;;;;;-3.36;65.22;93319.94;4925166;28;20050;-90
2022/02/13 06:07:55;;;;;;;13.48;5.07;;;;;;;-3.25;66.24;93357.09;4954313;28;20138;-90
2022/02/13 06:11:12;;;;;;;10.32;5.00;;;;;;;-3.35;65.80;93346.38;4958673;28;20459;-89
2022/02/13 06:14:11;;;;;;;9.07;4.88;;;;;;;-3.28;65.97;93354.91;4951342;28;20046;-88
2022/02/13 06:17:12;;;;;;;10.10;4.65;;;;;;;-3.51;65.93;93321.78;4940832;28;20383;-91
2022/02/13 06:20:28;;;;;;;11.38;4.97;;;;;;;-3.46;65.74;93326.34;4955425;28;20047;-87
2022/02/13 06:23:13;;;;;;;9.63;5.00;;;;;;;-3.52;65.94;93324.50;4955490;28;20041;-88
2022/02/13 06:26:04;;;;;;;13.30;4.88;;;;;;;-3.23;65.96;93367.97;4960252;28;20579;-86
2022/02/13 06:28:59;;;;;;;9.20;5.05;;;;;;;-3.41;65.50;93336.84;4937293;28;20034;-88
2022/02/13 06:31:33;;;;;;;9.90;5.22;;;;;;;-3.22;65.84;93361.88;4953677;28;20043;-89
2022/02/13 06:34:23;;;;;;;10.85;5.57;;;;;;;-3.27;65.70;93353.16;4946409;28;20031;-87
2022/02/13 06:37:11;;;;;;;8.90;4.80;;;;;;;-3.39;65.39;93329.78;4953851;28;20450;-87
2022/02/13 06:39:54;;;;;;;11.57;5.22;;;;;;;-3.36;65.51;93337.88;4941495;28;20046;-87
2022/02/13 06:42:59;;;;;;;12.13;5.63;;;;;;;-2.91;65.59;93391.56;4945867;28;20034;-88
2022/02/13 06:45:50;;;;;;;14.18;5.18;;;;;;;-3.07;65.38;93331.09;4938750;28;20118;-87
2022/02/13 06:48:40;;;;;;;10.38;5.32;;;;;;;-1.75;62.78;93388.75;4944020;28;20093;-88
2022/02/13 06:51:17;;;;;;;13.38;5.22;;;;;;;-0.18;59.86;93385.28;4938437;28;20113;-87
2022/02/13 06:54:43;;;;;;;12.15;5.32;;;;;;;1.50;55.37;93401.84;4927321;28;20465;-87
2022/02/13 06:57:34;;;;;;;15.38;6.22;;;;;;;2.65;52.24;93368.69;4960225;28;20102;-87
2022/02/13 07:00:12;;;;;;;;;;;;;;;4.10;48.20;93397.28;4931267;29;20099;-88
2022/02/13 07:03:05;;;;;;;;;;;;;;;;;;;;;
2022/02/13 07:06:17;;;;;;;12.93;5.38;;;;;;;6.52;43.37;93387.78;4949972;29;20085;-88
2022/02/13 07:13:59;;;;;;;;;;;;;;;;;;;;;
2022/02/13 07:22:04;;;;;;;;;;;;;;;;;;;;;
2022/02/13 07:37:39;;;;;;;;;;;;;;;;;;;;;
2022/02/13 08:00:41;;;;;;;12.00;6.85;;;;;;;15.06;25.04;93386.69;4671449;30;20119;-93
2022/02/13 08:19:39;;;;;;;;;;;;;;;;;;;;;
2022/02/13 08:26:56;;;;;;;;;;;;;;;;;;;;;
2022/02/13 08:33:49;;;;;;;15.27;5.55;;;;;;;5.26;39.18;93342.84;4910001;29;20063;-92
2022/02/13 08:37:03;;;;;;;;;;;;;;;;;;;;;
2022/02/13 08:40:05;;;;;;;13.93;5.97;;;;;;;5.51;39.56;93326.16;4921080;29;20055;-91
2022/02/13 08:43:07;;;;;;;17.27;6.65;;;;;;;5.73;38.94;93339.25;4919666;29;20080;-91
2022/02/13 08:46:04;;;;;;;13.05;7.07;;;;;;;5.13;39.62;93413.22;4892594;29;20176;-93
2022/02/13 08:56:12;;;;;;;11.38;6.38;;;;;;;4.02;44.40;93345.75;4887207;29;20142;-91
2022/02/13 08:59:03;;;;;;;;;;;;;;;;;;;;;
2022/02/13 09:01:50;;;;;;;13.43;6.68;;;;;;;4.10;45.57;93358.41;4938846;29;20042;-90
2022/02/13 09:04:47;;;;;;;12.70;6.78;;;;;;;4.16;43.70;93353.06;4939163;29;20051;-90
2022/02/13 09:07:44;;;;;;;;;;;;;;;;;;;;;
2022/02/13 09:10:56;;;;;;;14.05;6.25;;;;;;;5.06;42.62;93399.56;4970124;29;20107;-90
2022/02/13 09:17:26;;;;;;;19.88;7.68;;;;;;;3.51;44.50;93324.63;4911790;29;20408;-90
2022/02/13 09:20:45;;;;;;;14.48;6.72;;;;;;;3.99;43.93;93330.69;4940130;29;20509;-90
2022/02/13 09:23:28;;;;;;;15.07;6.63;;;;;;;3.99;43.86;93370.31;4926027;29;20444;-90
2022/02/13 09:26:17;;;;;;;;;;;;;;;;;;;;;
2022/02/13 09:32:45;;;;;;;;;;;;;;;;;;;;;
2022/02/13 09:35:46;;;;;;;16.80;7.45;;;;;;;3.80;46.35;93343.69;4960595;29;20043;-90
2022/02/13 09:38:43;;;;;;;;;;;;;;;;;;;;;
2022/02/13 09:41:41;;;;;;;14.00;7.68;;;;;;;3.65;47.27;93312.28;4959044;29;20147;-88
2022/02/13 09:48:05;;;;;;;17.75;8.10;;;;;;;3.47;47.87;93345.00;4961014;29;20051;-90
2022/02/13 09:51:00;;;;;;;;;;;;;;;;;;;;;
2022/02/13 09:54:05;;;;;;;;;;;;;;;;;;;;;
2022/02/13 10:00:31;;;;;;;13.52;6.95;;;;;;;4.25;45.73;93325.03;4957250;29;20043;-90
2022/02/13 10:03:53;;;;;;;14.63;6.50;;;;;;;4.22;45.47;93309.16;4957408;28;20051;-90
2022/02/13 10:07:32;;;;;;;12.23;6.90;;;;;;;4.36;46.67;93372.69;4949342;29;20055;-90
2022/02/13 10:11:02;;;;;;;;;;;;;;;;;;;;;
2022/02/13 10:18:02;;;;;;;;;;;;;;;;;;;;;
2022/02/13 10:21:04;;;;;;;13.32;6.47;;;;;;;3.90;46.62;93358.72;4960189;29;20441;-91
2022/02/13 10:27:52;;;;;;;13.52;6.78;;;;;;;5.03;44.38;93372.28;4959430;29;20078;-92
2022/02/13 10:42:28;;;;;;;18.73;7.00;;;;;;;4.84;45.21;93363.06;4881174;29;20546;-91
2022/02/13 10:45:58;;;;;;;10.32;5.80;;;;;;;4.93;45.25;93348.72;4865508;29;20041;-90
2022/02/13 10:49:04;;;;;;;14.55;6.85;;;;;;;4.64;43.85;93273.47;4919543;29;20055;-91
2022/02/13 10:55:34;;;;;;;14.95;7.55;;;;;;;4.49;43.58;93268.75;4929352;29;20043;-90
2022/02/13 11:13:55;;;;;;;16.10;6.30;;;;;;;4.65;43.19;93313.94;4976786;28;20050;-78
2022/02/13 11:16:32;;;;;;;13.85;6.60;;;;;;;5.07;42.42;93308.53;4974906;28;20049;-74
2022/02/13 11:19:12;;;;;;;16.63;8.95;;;;;;;4.34;43.16;93310.69;4975830;28;20027;-79
2022/02/13 11:21:41;;;;;;;14.32;6.97;;;;;;;5.10;42.89;93300.25;4965463;28;20515;-78
2022/02/13 11:24:07;;;;;;;12.95;6.50;;;;;;;5.03;42.82;93302.22;4954788;28;20038;-77
2022/02/13 11:26:43;;;;;;;19.15;6.68;;;;;;;4.60;44.28;93290.50;4939982;29;20114;-78
2022/02/13 11:29:12;;;;;;;6.90;4.00;;;;;;;4.75;43.68;93283.03;4955813;28;20473;-77
2022/02/13 11:31:50;;;;;;;14.40;6.50;;;;;;;5.09;43.41;93285.72;4956268;28;20026;-77
2022/02/13 11:34:22;;;;;;;13.07;6.75;;;;;;;5.24;42.77;93289.59;4941957;28;20399;-78
2022/02/13 11:36:48;;;;;;;16.17;7.18;;;;;;;5.36;43.58;93277.38;4938564;29;20035;-77
2022/02/13 11:39:39;;;;;;;10.27;4.95;;;;;;;4.97;44.06;93272.00;4948479;28;20062;-78
2022/02/13 11:42:15;;;;;;;8.02;4.70;;;;;;;5.36;44.12;93277.38;4958865;28;20105;-77
2022/02/13 11:44:54;;;;;;;15.70;6.53;;;;;;;5.08;42.37;93265.97;4958903;28;20035;-78
2022/02/13 11:47:40;;;;;;;12.50;6.55;;;;;;;5.36;42.92;93256.59;4955518;28;20047;-78
2022/02/13 11:50:15;;;;;;;10.63;6.18;;;;;;;5.37;43.42;93265.94;4959223;28;20447;-77
2022/02/13 11:52:52;;;;;;;14.13;5.78;;;;;;;5.29;43.33;93261.13;4930596;28;20523;-78
2022/02/13 11:55:19;;;;;;;15.85;6.72;;;;;;;5.46;43.51;93251.53;4955335;28;20039;-79
2022/02/13 11:57:59;;;;;;;14.75;6.40;;;;;;;5.30;43.40;93244.53;4970426;28;20552;-80
2022/02/13 12:00:39;;;;;;;15.80;7.32;;;;;;;5.87;41.85;93244.38;4971073;28;20099;-81
2022/02/13 12:03:22;;;;;;;16.13;6.72;;;;;;;5.26;42.83;93239.00;4942985;29;20034;-77
2022/02/13 12:06:02;;;;;;;10.88;5.80;;;;;;;5.72;41.09;93234.56;4959191;28;20039;-79
2022/02/13 12:08:28;;;;;;;11.40;5.15;;;;;;;5.47;42.09;93241.94;4966143;28;20491;-79
2022/02/13 12:11:08;;;;;;;12.50;6.72;;;;;;;4.71;43.72;93235.22;4959901;28;20019;-79
2022/02/13 12:13:38;;;;;;;10.60;5.47;;;;;;;5.15;43.33;93232.84;4938624;29;20046;-80
2022/02/13 12:16:06;;;;;;;14.82;6.15;;;;;;;6.18;42.24;93224.81;4938612;29;20039;-79
2022/02/13 12:18:34;;;;;;;11.57;6.38;;;;;;;6.15;42.13;93216.72;4954241;29;20026;-79
2022/02/13 12:21:02;;;;;;;10.18;6.05;;;;;;;5.58;42.63;93213.31;4965052;28;20039;-78
2022/02/13 12:23:31;;;;;;;15.95;7.07;;;;;;;6.18;41.65;93211.03;4938294;28;20360;-80
2022/02/13 12:25:58;;;;;;;12.60;7.28;;;;;;;6.09;41.54;93207.28;4893431;29;20091;-78
2022/02/13 12:28:35;;;;;;;15.68;7.50;;;;;;;6.08;42.03;93192.69;4940490;28;20032;-81
2022/02/13 12:31:06;;;;;;;12.43;6.57;;;;;;;6.89;40.64;93205.88;4960780;28;20049;-81
2022/02/13 12:33:38;;;;;;;14.40;6.47;;;;;;;6.75;39.93;93194.25;4954110;28;20514;-80
2022/02/13 12:36:04;;;;;;;12.68;6.95;;;;;;;7.32;39.57;93193.75;4942606;28;20039;-81
2022/02/13 12:38:32;;;;;;;9.75;5.55;;;;;;;5.70;41.67;93191.66;4955939;28;20043;-79
2022/02/13 12:40:59;;;;;;;10.25;4.70;;;;;;;6.26;41.17;93184.63;4955700;28;20043;-80
2022/02/13 12:43:25;;;;;;;11.43;5.68;;;;;;;5.32;43.02;93167.22;4939884;29;20058;-79
2022/02/13 12:45:55;;;;;;;15.95;7.63;;;;;;;5.41;42.99;93178.78;4952749;28;20074;-80
2022/02/13 12:48:25;;;;;;;13.68;7.20;;;;;;;6.47;42.96;93164.81;4956565;29;20440;-80
2022/02/13 12:50:53;;;;;;;13.82;6.03;;;;;;;6.50;40.58;93160.94;4957319;28;20459;-80
2022/02/13 12:53:24;;;;;;;11.40;6.43;;;;;;;6.32;40.18;93142.03;4956642;29;20061;-80
2022/02/13 12:55:50;;;;;;;11.23;4.75;;;;;;;5.71;41.83;93142.03;4953800;28;20071;-79
2022/02/13 12:58:16;;;;;;;13.43;6.50;;;;;;;5.66;42.29;93136.78;4957567;29;20038;-79
2022/02/13 13:00:41;;;;;;;10.98;5.50;;;;;;;5.61;41.37;93145.28;4938990;29;20472;-80
2022/02/13 13:03:13;;;;;;;13.82;7.50;;;;;;;5.76;42.11;93143.91;4951420;29;20027;-79
2022/02/13 13:05:46;;;;;;;13.23;6.90;;;;;;;6.17;40.73;93137.47;4954329;29;20035;-80
2022/02/13 13:08:19;;;;;;;8.98;4.82;;;;;;;5.72;41.17;93132.44;4945784;29;20611;-80
2022/02/13 13:10:59;;;;;;;15.43;6.45;;;;;;;5.63;39.92;93132.84;4958860;29;20039;-80
2022/02/13 13:13:27;;;;;;;16.42;6.15;;;;;;;5.88;35.87;93118.63;4958897;28;20138;-80
2022/02/13 13:16:03;;;;;;;10.63;5.07;;;;;;;5.95;41.10;93101.06;4960715;28;20032;-79
2022/02/13 13:18:58;;;;;;;9.52;5.18;;;;;;;5.98;39.80;93107.59;4959862;29;20034;-79
2022/02/13 13:21:47;;;;;;;10.50;5.00;;;;;;;6.20;39.20;93108.38;4948815;28;20071;-79
2022/02/13 13:24:16;;;;;;;8.63;4.38;;;;;;;5.79;39.39;93101.88;4957728;28;21210;-78
2022/02/13 13:26:47;;;;;;;12.38;6.15;;;;;;;5.78;40.73;93108.09;4959044;28;20027;-78
2022/02/13 13:29:31;;;;;;;12.68;4.82;;;;;;;6.05;37.65;93098.56;4950576;28;21683;-79
2022/02/13 13:32:11;;;;;;;10.35;5.10;;;;;;;5.53;36.93;93095.56;4960430;28;20396;-79
2022/02/13 13:34:52;;;;;;;9.98;4.93;;;;;;;5.80;35.66;93091.22;4967706;28;20035;-81
2022/02/13 13:37:34;;;;;;;8.13;4.43;;;;;;;5.97;35.18;93088.63;4955731;28;20066;-81
2022/02/13 13:40:12;;;;;;;8.85;4.80;;;;;;;5.60;35.17;93093.59;4958553;28;20039;-79
2022/02/13 13:42:42;;;;;;;14.82;5.43;;;;;;;5.67;37.07;93098.59;4961963;28;20094;-79
2022/02/13 13:45:11;;;;;;;10.73;5.18;;;;;;;6.23;35.21;93096.69;4957058;28;20035;-80
2022/02/13 13:47:39;;;;;;;8.20;4.05;;;;;;;6.04;36.55;93081.41;4956635;29;20039;-80
2022/02/13 13:50:05;;;;;;;9.90;4.80;;;;;;;5.61;36.16;93082.97;4938743;29;20039;-79
2022/02/13 13:52:31;;;;;;;12.32;5.57;;;;;;;5.75;35.63;93082.59;4939803;29;20535;-78
2022/02/13 13:54:56;;;;;;;10.13;5.85;;;;;;;5.75;36.77;93077.41;4950284;28;20070;-79
2022/02/13 13:57:22;;;;;;;11.18;3.50;;;;;;;5.86;36.11;93068.72;4957371;28;20037;-78
2022/02/13 13:59:48;;;;;;;9.35;5.03;;;;;;;5.67;36.99;93064.84;4941640;28;20038;-77
2022/02/13 14:02:22;;;;;;;8.43;4.15;;;;;;;5.99;37.42;93068.38;4963176;28;20518;-79
2022/02/13 14:04:49;;;;;;;10.82;5.57;;;;;;;6.27;38.14;93063.19;4958065;28;20035;-78
2022/02/13 14:07:15;;;;;;;13.43;6.32;;;;;;;6.25;36.84;93063.44;4953256;28;20651;-80
2022/02/13 14:09:41;;;;;;;11.98;6.60;;;;;;;6.16;36.74;93067.50;4955818;29;20054;-78
2022/02/13 14:12:12;;;;;;;12.38;5.78;;;;;;;6.53;36.80;93061.59;4954937;28;20054;-80
2022/02/13 14:14:41;;;;;;;11.93;6.38;;;;;;;6.44;37.00;93062.06;4943367;29;20071;-79
2022/02/13 14:17:08;;;;;;;11.68;6.25;;;;;;;6.38;38.45;93055.25;4943606;28;20043;-79
2022/02/13 14:19:34;;;;;;;10.68;5.65;;;;;;;5.72;40.15;93057.09;4937774;29;20082;-79
2022/02/13 14:22:00;;;;;;;17.13;7.05;;;;;;;6.27;39.31;93055.41;4940994;28;20114;-79
2022/02/13 14:24:26;;;;;;;12.95;7.78;;;;;;;6.04;39.23;93047.63;4943113;28;21516;-79
2022/02/13 14:26:52;;;;;;;10.35;5.28;;;;;;;5.99;39.36;93046.78;4942470;28;20026;-80
2022/02/13 14:29:17;;;;;;;13.52;5.53;;;;;;;5.86;39.72;93045.31;4958400;28;20517;-79
2022/02/13 14:31:44;;;;;;;12.15;6.68;;;;;;;6.17;40.13;93043.06;4949885;28;20035;-79
2022/02/13 14:34:20;;;;;;;9.65;4.78;;;;;;;6.11;39.35;93044.84;4939943;28;20031;-80
2022/02/13 14:36:48;;;;;;;12.48;6.43;;;;;;;6.29;39.56;93035.13;4947879;28;20038;-80
2022/02/13 14:39:16;;;;;;;10.40;5.72;;;;;;;5.57;40.72;93036.94;4957272;29;20179;-79
2022/02/13 14:41:41;;;;;;;11.75;6.38;;;;;;;6.05;40.27;93040.63;4955420;28;20043;-79
2022/02/13 14:44:08;;;;;;;15.43;8.10;;;;;;;5.75;40.10;93038.44;4957637;28;20031;-78
2022/02/13 14:46:34;;;;;;;13.07;6.32;;;;;;;5.61;40.40;93035.44;4963183;28;20476;-78
2022/02/13 14:49:00;;;;;;;8.98;5.43;;;;;;;5.47;40.41;93037.59;4963830;28;20093;-79
2022/02/13 14:51:27;;;;;;;9.35;5.63;;;;;;;5.06;41.46;93033.66;4966513;28;20031;-79
2022/02/13 14:53:54;;;;;;;15.35;7.40;;;;;;;5.48;40.85;93025.41;4930770;29;20040;-80
2022/02/13 14:56:20;;;;;;;14.20;6.95;;;;;;;6.00;39.87;93030.94;4938156;29;20039;-78
2022/02/13 14:58:46;;;;;;;14.07;7.15;;;;;;;6.32;39.08;93025.03;4952013;29;20126;-80
2022/02/13 15:01:12;;;;;;;11.93;6.82;;;;;;;5.95;38.31;93025.72;4958614;28;20042;-79
2022/02/13 15:03:40;;;;;;;10.02;5.57;;;;;;;6.08;38.41;93021.94;4945892;29;20055;-78
2022/02/13 15:06:06;;;;;;;10.80;5.78;;;;;;;5.73;39.37;93027.50;4970085;28;20489;-78
2022/02/13 15:08:31;;;;;;;12.95;6.40;;;;;;;5.50;39.86;93018.16;4958043;28;20031;-79
2022/02/13 15:11:00;;;;;;;12.43;6.43;;;;;;;5.64;39.55;93020.13;4958673;28;20117;-78
2022/02/13 15:13:27;;;;;;;13.27;6.68;;;;;;;5.16;40.07;93019.03;4959435;28;20058;-79
2022/02/13 15:15:53;;;;;;;12.85;5.50;;;;;;;5.27;40.03;93021.75;4972813;28;20043;-79
2022/02/13 15:18:18;;;;;;;14.13;6.05;;;;;;;5.17;39.95;93010.19;4968921;28;20437;-78
2022/02/13 15:20:44;;;;;;;12.57;6.05;;;;;;;5.14;40.02;93010.69;4949821;28;20097;-79
2022/02/13 15:23:10;;;;;;;12.65;6.55;;;;;;;5.33;39.57;93013.00;4950959;28;20046;-79
2022/02/13 15:25:36;;;;;;;198.15;61.72;;;;;;;4.72;40.80;93018.13;4962442;28;20136;-79
2022/02/13 15:28:02;;;;;;;32.53;11.88;;;;;;;4.76;40.79;93008.84;4939400;28;20055;-77
2022/02/13 15:30:28;;;;;;;16.48;8.38;;;;;;;4.82;40.68;93004.50;4946175;28;20039;-77
2022/02/13 15:32:53;;;;;;;32.70;12.23;;;;;;;4.97;40.46;93008.09;4939297;29;20031;-78
2022/02/13 15:35:19;;;;;;;25.83;12.13;;;;;;;5.16;40.86;93003.44;4936741;29;20043;-78
2022/02/13 15:37:46;;;;;;;22.15;11.73;;;;;;;5.13;39.65;93001.31;4959724;28;20393;-80
2022/02/13 15:40:12;;;;;;;28.73;13.57;;;;;;;4.72;40.54;92994.78;4957083;28;20083;-79
2022/02/13 15:42:39;;;;;;;14.57;8.27;;;;;;;4.73;40.94;92998.97;4943694;28;20390;-80
2022/02/13 15:45:09;;;;;;;12.07;6.22;;;;;;;5.36;40.71;92999.56;4949063;29;20035;-79
2022/02/13 15:47:36;;;;;;;15.15;7.55;;;;;;;5.61;39.69;92997.25;4950649;28;20527;-80
2022/02/13 15:50:03;;;;;;;36.20;17.25;;;;;;;5.61;39.74;92989.47;4948033;29;20094;-79
2022/02/13 15:52:29;;;;;;;16.73;6.70;;;;;;;5.52;40.05;92997.94;4948175;28;20043;-79
2022/02/13 15:54:54;;;;;;;19.55;8.25;;;;;;;5.43;39.81;92992.38;4960929;28;20117;-80
2022/02/13 15:57:22;;;;;;;14.60;7.72;;;;;;;5.30;40.37;92993.50;4976532;28;20142;-79
2022/02/13 15:59:49;;;;;;;15.82;8.38;;;;;;;4.97;40.61;92989.94;4957584;28;20066;-79
2022/02/13 16:02:22;;;;;;;15.43;8.13;;;;;;;4.65;41.78;92981.97;4952178;28;20110;-78
2022/02/13 16:04:48;;;;;;;17.73;8.15;;;;;;;4.54;42.46;92988.03;4953480;28;20046;-77
2022/02/13 16:07:13;;;;;;;21.13;9.45;;;;;;;4.41;43.11;92990.94;4953805;28;20433;-78
2022/02/13 16:09:40;;;;;;;17.27;7.60;;;;;;;4.12;43.61;92978.03;4954120;28;20042;-79
2022/02/13 16:12:06;;;;;;;18.13;8.57;;;;;;;4.13;43.99;92988.16;4958216;28;20051;-76
2022/02/13 16:14:32;;;;;;;15.48;8.40;;;;;;;4.03;44.80;92979.44;4956679;28;20039;-78
2022/02/13 16:16:58;;;;;;;18.45;8.45;;;;;;;3.93;44.96;92980.06;4954230;28;20503;-76
2022/02/13 16:19:27;;;;;;;25.02;11.63;;;;;;;3.89;45.01;92981.53;4949857;28;20176;-76
2022/02/13 16:21:53;;;;;;;25.90;12.63;;;;;;;3.84;44.70;92978.88;4922531;29;20070;-75
2022/02/13 16:24:18;;;;;;;19.73;8.70;;;;;;;3.75;45.47;92983.63;4951630;29;20514;-80
2022/02/13 16:26:44;;;;;;;20.85;9.90;;;;;;;3.69;45.69;92987.94;4944207;28;20126;-79
2022/02/13 16:29:10;;;;;;;23.55;11.02;;;;;;;3.52;46.25;92982.69;4962213;28;20438;-80
2022/02/13 16:31:38;;;;;;;49.33;18.67;;;;;;;3.44;46.52;92980.47;4940684;29;20403;-79
2022/02/13 16:34:05;;;;;;;27.83;11.45;;;;;;;3.39;45.89;92985.53;4959129;29;20122;-79
2022/02/13 16:36:32;;;;;;;29.25;13.57;;;;;;;3.24;46.71;92983.47;4958757;28;20509;-79
2022/02/13 16:38:57;;;;;;;33.15;15.07;;;;;;;3.22;46.87;92989.84;4958749;28;20031;-80
2022/02/13 16:41:26;;;;;;;28.35;13.00;;;;;;;3.10;46.79;92982.91;4955775;28;20141;-77
2022/02/13 16:43:54;;;;;;;22.10;10.98;;;;;;;3.03;46.65;92981.47;4958243;29;20062;-79
2022/02/13 16:46:20;;;;;;;15.60;7.85;;;;;;;3.00;46.66;92984.50;4955357;29;20389;-78
2022/02/13 16:48:47;;;;;;;16.63;8.65;;;;;;;2.89;46.71;92989.44;4949823;28;20051;-77
2022/02/13 16:51:14;;;;;;;17.88;8.88;;;;;;;2.79;46.24;92996.19;4934476;29;20462;-79
2022/02/13 16:53:43;;;;;;;15.32;7.53;;;;;;;2.68;46.43;92993.41;4930277;29;20516;-80
2022/02/13 16:56:11;;;;;;;15.48;8.00;;;;;;;2.57;46.96;92995.97;4953518;29;20039;-77
2022/02/13 16:58:38;;;;;;;17.42;7.82;;;;;;;2.46;47.33;93000.13;4937710;29;20119;-79
2022/02/13 17:01:05;;;;;;;17.80;7.78;;;;;;;2.37;47.23;92991.16;4947886;28;20125;-77
2022/02/13 17:03:32;;;;;;;20.15;7.63;;;;;;;2.25;47.34;92994.50;4943151;29;20093;-78
2022/02/13 17:05:58;;;;;;;19.27;7.45;;;;;;;2.16;47.55;92995.81;4957361;28;20051;-78
2022/02/13 17:08:24;;;;;;;16.58;7.57;;;;;;;2.11;47.14;93007.81;4955364;28;20050;-79
2022/02/13 17:10:52;;;;;;;19.15;7.78;;;;;;;2.02;47.52;92997.00;4933993;29;20035;-80
2022/02/13 17:13:29;;;;;;;17.33;7.53;;;;;;;1.96;46.90;92993.53;4925672;28;20195;-78
2022/02/13 17:15:57;;;;;;;14.15;7.00;;;;;;;1.93;47.21;92993.94;4955051;28;20038;-79
2022/02/13 17:18:23;;;;;;;15.88;7.28;;;;;;;1.91;47.56;92995.97;4958087;28;20127;-79
2022/02/13 17:20:49;;;;;;;16.08;7.85;;;;;;;1.87;47.86;92990.47;4962011;28;20074;-80
2022/02/13 17:23:16;;;;;;;14.63;7.80;;;;;;;1.85;47.47;92997.66;4960125;28;20039;-77
2022/02/13 17:25:42;;;;;;;14.93;7.22;;;;;;;1.87;47.09;92998.22;4939554;29;20055;-77
2022/02/13 17:28:09;;;;;;;14.15;7.35;;;;;;;1.86;47.13;92993.25;4940599;29;20496;-78
2022/02/13 17:30:36;;;;;;;15.80;7.57;;;;;;;1.84;47.47;92996.06;4955961;28;20023;-78
2022/02/13 17:33:04;;;;;;;18.70;7.22;;;;;;;1.75;47.88;92999.19;4964685;28;20408;-77
2022/02/13 17:35:29;;;;;;;48.92;21.50;;;;;;;1.66;48.32;93001.28;4956793;29;20039;-80
2022/02/13 17:37:56;;;;;;;32.70;13.20;;;;;;;1.56;48.80;92999.22;4937252;29;20558;-76
2022/02/13 17:40:22;;;;;;;32.47;15.15;;;;;;;1.46;48.50;93009.25;4954422;28;20077;-77
2022/02/13 17:42:49;;;;;;;26.08;11.02;;;;;;;1.38;49.05;93002.63;4922692;28;20035;-76
2022/02/13 17:45:14;;;;;;;34.97;14.93;;;;;;;1.32;49.26;93006.06;4939516;28;20027;-75
2022/02/13 17:47:40;;;;;;;35.42;14.07;;;;;;;1.25;49.64;93007.91;4946318;29;20055;-76
2022/02/13 17:50:07;;;;;;;32.88;15.15;;;;;;;1.19;49.46;93007.00;4955883;28;20060;-77
2022/02/13 17:52:35;;;;;;;36.00;15.02;;;;;;;1.12;50.11;93008.06;4920138;29;20062;-78